sensor_id;sensor_type;location;lat;lon;timestamp;temperature;humidity
23160;DHT22;11748;50.844;4.396;2023-02-28T00:01:17;3.60;99.90
23160;DHT22;11748;50.844;4.396;2023-02-28T00:03:42;3.60;99.90
23160;DHT22;11748;50.844;4.396;2023-02-28T00:06:09;3.60;99.90
23160;DHT22;11748;50.844;4.396;2023-02-28T00:08:36;3.50;99.90
23160;DHT22;11748;50.844;4.396;2023-02-28T00:11:13;3.50;99.90
23160;DHT22;11748;50.844;4.396;2023-02-28T00:13:41;3.50;99.90
23160;DHT22;11748;50.844;4.396;2023-02-28T00:16:11;3.60;99.90
23160;DHT22;11748;50.844;4.396;2023-02-28T00:18:37;3.50;99.90
23160;DHT22;11748;50.844;4.396;2023-02-28T00:21:03;3.40;99.90
23160;DHT22;11748;50.844;4.396;2023-02-28T00:23:30;3.40;99.90
23160;DHT22;11748;50.844;4.396;2023-02-28T00:25:56;3.40;99.90
23160;DHT22;11748;50.844;4.396;2023-02-28T00:28:22;3.50;99.90
23160;DHT22;11748;50.844;4.396;2023-02-28T00:30:48;3.40;99.90
23160;DHT22;11748;50.844;4.396;2023-02-28T00:33:14;3.50;99.90
23160;DHT22;11748;50.844;4.396;2023-02-28T00:35:39;3.50;99.90
23160;DHT22;11748;50.844;4.396;2023-02-28T00:38:05;3.50;99.90
23160;DHT22;11748;50.844;4.396;2023-02-28T00:40:31;3.30;99.90
23160;DHT22;11748;50.844;4.396;2023-02-28T00:42:57;3.40;99.90
23160;DHT22;11748;50.844;4.396;2023-02-28T00:45:23;3.40;99.90
23160;DHT22;11748;50.844;4.396;2023-02-28T00:47:49;3.30;99.90
23160;DHT22;11748;50.844;4.396;2023-02-28T00:50:24;3.20;99.90
23160;DHT22;11748;50.844;4.396;2023-02-28T00:52:50;3.20;99.90
23160;DHT22;11748;50.844;4.396;2023-02-28T00:55:15;3.30;99.90
23160;DHT22;11748;50.844;4.396;2023-02-28T00:57:41;3.20;99.90
23160;DHT22;11748;50.844;4.396;2023-02-28T01:00:08;3.20;99.90
23160;DHT22;11748;50.844;4.396;2023-02-28T01:02:34;3.10;99.90
23160;DHT22;11748;50.844;4.396;2023-02-28T01:05:00;3.20;99.90
23160;DHT22;11748;50.844;4.396;2023-02-28T01:07:26;3.10;99.90
23160;DHT22;11748;50.844;4.396;2023-02-28T01:09:51;3.20;99.90
23160;DHT22;11748;50.844;4.396;2023-02-28T01:12:17;3.10;99.90
23160;DHT22;11748;50.844;4.396;2023-02-28T01:14:43;3.10;99.90
23160;DHT22;11748;50.844;4.396;2023-02-28T01:17:08;3.10;99.90
23160;DHT22;11748;50.844;4.396;2023-02-28T01:19:34;3.10;99.90
23160;DHT22;11748;50.844;4.396;2023-02-28T01:22:04;3.10;99.90
23160;DHT22;11748;50.844;4.396;2023-02-28T01:24:31;3.20;99.90
23160;DHT22;11748;50.844;4.396;2023-02-28T01:26:57;3.10;99.90
23160;DHT22;11748;50.844;4.396;2023-02-28T01:29:22;3.10;99.90
23160;DHT22;11748;50.844;4.396;2023-02-28T01:31:48;3.00;99.90
23160;DHT22;11748;50.844;4.396;2023-02-28T01:34:14;3.00;99.90
23160;DHT22;11748;50.844;4.396;2023-02-28T01:36:39;3.10;99.90
23160;DHT22;11748;50.844;4.396;2023-02-28T01:39:05;3.00;99.90
23160;DHT22;11748;50.844;4.396;2023-02-28T01:41:33;3.00;99.90
23160;DHT22;11748;50.844;4.396;2023-02-28T01:46:24;3.00;99.90
23160;DHT22;11748;50.844;4.396;2023-02-28T01:51:22;3.00;99.90
23160;DHT22;11748;50.844;4.396;2023-02-28T01:53:53;3.00;99.90
23160;DHT22;11748;50.844;4.396;2023-02-28T01:56:25;3.00;99.90
23160;DHT22;11748;50.844;4.396;2023-02-28T01:58:53;3.00;99.90
23160;DHT22;11748;50.844;4.396;2023-02-28T02:01:21;2.80;99.90
23160;DHT22;11748;50.844;4.396;2023-02-28T02:03:50;2.80;99.90
23160;DHT22;11748;50.844;4.396;2023-02-28T02:06:43;2.90;99.90
23160;DHT22;11748;50.844;4.396;2023-02-28T02:09:10;2.80;99.90
23160;DHT22;11748;50.844;4.396;2023-02-28T02:11:36;2.90;99.90
23160;DHT22;11748;50.844;4.396;2023-02-28T02:14:09;2.90;99.90
23160;DHT22;11748;50.844;4.396;2023-02-28T02:30:28;2.70;99.90
23160;DHT22;11748;50.844;4.396;2023-02-28T02:36:24;2.70;99.90
23160;DHT22;11748;50.844;4.396;2023-02-28T02:39:14;2.70;99.90
23160;DHT22;11748;50.844;4.396;2023-02-28T02:41:53;2.60;99.90
23160;DHT22;11748;50.844;4.396;2023-02-28T02:44:38;2.50;99.90
23160;DHT22;11748;50.844;4.396;2023-02-28T02:47:18;2.50;99.90
23160;DHT22;11748;50.844;4.396;2023-02-28T02:49:49;2.50;99.90
23160;DHT22;11748;50.844;4.396;2023-02-28T02:52:20;2.60;99.90
23160;DHT22;11748;50.844;4.396;2023-02-28T02:54:48;2.60;99.90
23160;DHT22;11748;50.844;4.396;2023-02-28T02:57:30;2.60;99.90
23160;DHT22;11748;50.844;4.396;2023-02-28T02:59:57;2.60;99.90
23160;DHT22;11748;50.844;4.396;2023-02-28T03:02:24;2.60;99.90
23160;DHT22;11748;50.844;4.396;2023-02-28T03:04:59;2.60;99.90
23160;DHT22;11748;50.844;4.396;2023-02-28T03:07:27;2.60;99.90
23160;DHT22;11748;50.844;4.396;2023-02-28T03:09:57;2.50;99.90
23160;DHT22;11748;50.844;4.396;2023-02-28T03:12:33;2.40;99.90
23160;DHT22;11748;50.844;4.396;2023-02-28T03:15:34;2.40;99.90
23160;DHT22;11748;50.844;4.396;2023-02-28T03:18:08;2.30;99.90
23160;DHT22;11748;50.844;4.396;2023-02-28T03:20:52;2.30;99.90
23160;DHT22;11748;50.844;4.396;2023-02-28T03:26:19;2.40;99.90
23160;DHT22;11748;50.844;4.396;2023-02-28T03:29:13;2.40;99.90
23160;DHT22;11748;50.844;4.396;2023-02-28T03:31:43;2.40;99.90
23160;DHT22;11748;50.844;4.396;2023-02-28T03:34:33;2.40;99.90
23160;DHT22;11748;50.844;4.396;2023-02-28T03:37:04;2.40;99.90
23160;DHT22;11748;50.844;4.396;2023-02-28T03:39:38;2.30;99.90
23160;DHT22;11748;50.844;4.396;2023-02-28T03:42:09;2.40;99.90
23160;DHT22;11748;50.844;4.396;2023-02-28T03:44:44;2.50;99.90
23160;DHT22;11748;50.844;4.396;2023-02-28T03:47:14;2.40;99.90
23160;DHT22;11748;50.844;4.396;2023-02-28T03:50:23;2.30;99.90
23160;DHT22;11748;50.844;4.396;2023-02-28T03:52:49;2.30;99.90
23160;DHT22;11748;50.844;4.396;2023-02-28T03:55:16;2.20;99.90
23160;DHT22;11748;50.844;4.396;2023-02-28T03:58:04;2.20;99.90
23160;DHT22;11748;50.844;4.396;2023-02-28T04:00:38;2.20;99.90
23160;DHT22;11748;50.844;4.396;2023-02-28T04:03:05;2.20;99.90
23160;DHT22;11748;50.844;4.396;2023-02-28T04:05:32;2.20;99.90
23160;DHT22;11748;50.844;4.396;2023-02-28T04:08:07;2.20;99.90
23160;DHT22;11748;50.844;4.396;2023-02-28T04:10:33;2.20;99.90
23160;DHT22;11748;50.844;4.396;2023-02-28T04:12:59;2.20;99.90
23160;DHT22;11748;50.844;4.396;2023-02-28T04:15:24;2.20;99.90
23160;DHT22;11748;50.844;4.396;2023-02-28T04:17:53;2.10;99.90
23160;DHT22;11748;50.844;4.396;2023-02-28T04:20:18;2.20;99.90
23160;DHT22;11748;50.844;4.396;2023-02-28T04:22:44;2.20;99.90
23160;DHT22;11748;50.844;4.396;2023-02-28T04:25:10;2.20;99.90
23160;DHT22;11748;50.844;4.396;2023-02-28T04:27:35;2.20;99.90
23160;DHT22;11748;50.844;4.396;2023-02-28T04:30:03;2.10;99.90
23160;DHT22;11748;50.844;4.396;2023-02-28T04:32:28;2.20;99.90
23160;DHT22;11748;50.844;4.396;2023-02-28T04:34:54;2.10;99.90
23160;DHT22;11748;50.844;4.396;2023-02-28T04:37:20;2.20;99.90
23160;DHT22;11748;50.844;4.396;2023-02-28T04:39:46;2.10;99.90
23160;DHT22;11748;50.844;4.396;2023-02-28T04:42:11;2.20;99.90
23160;DHT22;11748;50.844;4.396;2023-02-28T04:44:37;2.20;99.90
23160;DHT22;11748;50.844;4.396;2023-02-28T04:47:03;2.20;99.90
23160;DHT22;11748;50.844;4.396;2023-02-28T04:49:29;2.20;99.90
23160;DHT22;11748;50.844;4.396;2023-02-28T04:51:55;2.20;99.90
23160;DHT22;11748;50.844;4.396;2023-02-28T04:54:21;2.20;99.90
23160;DHT22;11748;50.844;4.396;2023-02-28T04:56:47;2.20;99.90
23160;DHT22;11748;50.844;4.396;2023-02-28T04:59:15;2.30;99.90
23160;DHT22;11748;50.844;4.396;2023-02-28T05:01:40;2.20;99.90
23160;DHT22;11748;50.844;4.396;2023-02-28T05:04:10;2.20;99.90
23160;DHT22;11748;50.844;4.396;2023-02-28T05:06:36;2.30;99.90
23160;DHT22;11748;50.844;4.396;2023-02-28T05:09:01;2.30;99.90
23160;DHT22;11748;50.844;4.396;2023-02-28T05:11:30;2.30;99.90
23160;DHT22;11748;50.844;4.396;2023-02-28T05:14:10;2.30;99.90
23160;DHT22;11748;50.844;4.396;2023-02-28T05:16:36;2.40;99.90
23160;DHT22;11748;50.844;4.396;2023-02-28T05:19:02;2.40;99.90
23160;DHT22;11748;50.844;4.396;2023-02-28T05:21:30;2.50;99.90
23160;DHT22;11748;50.844;4.396;2023-02-28T05:23:59;2.60;99.90
23160;DHT22;11748;50.844;4.396;2023-02-28T05:26:25;2.60;99.90
23160;DHT22;11748;50.844;4.396;2023-02-28T05:28:51;2.50;99.90
23160;DHT22;11748;50.844;4.396;2023-02-28T05:31:17;2.60;99.90
23160;DHT22;11748;50.844;4.396;2023-02-28T05:33:42;2.50;99.90
23160;DHT22;11748;50.844;4.396;2023-02-28T05:36:08;2.40;99.90
23160;DHT22;11748;50.844;4.396;2023-02-28T05:38:34;2.50;99.90
23160;DHT22;11748;50.844;4.396;2023-02-28T05:41:00;2.50;99.90
23160;DHT22;11748;50.844;4.396;2023-02-28T05:43:25;2.50;99.90
23160;DHT22;11748;50.844;4.396;2023-02-28T05:45:51;2.60;99.90
23160;DHT22;11748;50.844;4.396;2023-02-28T05:48:17;2.60;99.90
23160;DHT22;11748;50.844;4.396;2023-02-28T05:50:43;2.60;99.90
23160;DHT22;11748;50.844;4.396;2023-02-28T05:53:12;2.60;99.90
23160;DHT22;11748;50.844;4.396;2023-02-28T05:55:38;2.60;99.90
23160;DHT22;11748;50.844;4.396;2023-02-28T05:58:04;2.60;99.90
23160;DHT22;11748;50.844;4.396;2023-02-28T06:00:29;2.60;99.90
23160;DHT22;11748;50.844;4.396;2023-02-28T06:02:55;2.70;99.90
23160;DHT22;11748;50.844;4.396;2023-02-28T06:05:27;2.80;99.90
23160;DHT22;11748;50.844;4.396;2023-02-28T06:07:54;2.90;99.90
23160;DHT22;11748;50.844;4.396;2023-02-28T06:10:20;2.90;99.90
23160;DHT22;11748;50.844;4.396;2023-02-28T06:12:46;3.00;99.90
23160;DHT22;11748;50.844;4.396;2023-02-28T06:15:13;3.00;99.90
23160;DHT22;11748;50.844;4.396;2023-02-28T06:17:40;3.00;99.90
23160;DHT22;11748;50.844;4.396;2023-02-28T06:20:06;3.00;99.90
23160;DHT22;11748;50.844;4.396;2023-02-28T06:22:32;3.00;99.90
23160;DHT22;11748;50.844;4.396;2023-02-28T06:24:58;3.00;99.90
23160;DHT22;11748;50.844;4.396;2023-02-28T06:27:25;3.00;99.90
23160;DHT22;11748;50.844;4.396;2023-02-28T06:29:54;3.00;99.90
23160;DHT22;11748;50.844;4.396;2023-02-28T06:32:21;3.00;99.90
23160;DHT22;11748;50.844;4.396;2023-02-28T06:34:47;3.00;99.90
23160;DHT22;11748;50.844;4.396;2023-02-28T06:37:12;3.00;99.90
23160;DHT22;11748;50.844;4.396;2023-02-28T06:39:38;3.10;99.90
23160;DHT22;11748;50.844;4.396;2023-02-28T06:42:05;3.20;99.90
23160;DHT22;11748;50.844;4.396;2023-02-28T06:44:31;3.20;99.90
23160;DHT22;11748;50.844;4.396;2023-02-28T06:47:02;3.10;99.90
23160;DHT22;11748;50.844;4.396;2023-02-28T06:49:32;3.10;99.90
23160;DHT22;11748;50.844;4.396;2023-02-28T06:51:58;3.10;99.90
23160;DHT22;11748;50.844;4.396;2023-02-28T06:54:24;3.10;99.90
23160;DHT22;11748;50.844;4.396;2023-02-28T06:56:50;3.10;99.90
23160;DHT22;11748;50.844;4.396;2023-02-28T06:59:16;3.20;99.90
23160;DHT22;11748;50.844;4.396;2023-02-28T07:01:42;3.20;99.90
23160;DHT22;11748;50.844;4.396;2023-02-28T07:04:08;3.10;99.90
23160;DHT22;11748;50.844;4.396;2023-02-28T07:06:33;3.10;99.90
23160;DHT22;11748;50.844;4.396;2023-02-28T07:08:59;3.00;99.90
23160;DHT22;11748;50.844;4.396;2023-02-28T07:11:27;3.30;99.90
23160;DHT22;11748;50.844;4.396;2023-02-28T07:13:54;3.30;99.90
23160;DHT22;11748;50.844;4.396;2023-02-28T07:16:21;3.30;99.90
23160;DHT22;11748;50.844;4.396;2023-02-28T07:18:47;3.20;99.90
23160;DHT22;11748;50.844;4.396;2023-02-28T07:21:13;3.10;99.90
23160;DHT22;11748;50.844;4.396;2023-02-28T07:23:39;3.30;99.90
23160;DHT22;11748;50.844;4.396;2023-02-28T07:26:06;3.40;99.90
23160;DHT22;11748;50.844;4.396;2023-02-28T07:28:32;3.50;99.90
23160;DHT22;11748;50.844;4.396;2023-02-28T07:31:04;3.50;99.90
23160;DHT22;11748;50.844;4.396;2023-02-28T07:33:30;3.60;99.90
23160;DHT22;11748;50.844;4.396;2023-02-28T07:36:07;3.70;99.90
23160;DHT22;11748;50.844;4.396;2023-02-28T07:38:35;3.70;99.90
23160;DHT22;11748;50.844;4.396;2023-02-28T07:41:02;3.70;99.90
23160;DHT22;11748;50.844;4.396;2023-02-28T07:43:31;3.60;99.90
23160;DHT22;11748;50.844;4.396;2023-02-28T07:46:09;3.50;99.90
23160;DHT22;11748;50.844;4.396;2023-02-28T07:48:35;3.60;99.90
23160;DHT22;11748;50.844;4.396;2023-02-28T07:51:01;3.70;99.90
23160;DHT22;11748;50.844;4.396;2023-02-28T07:53:28;3.70;99.90
23160;DHT22;11748;50.844;4.396;2023-02-28T07:55:57;3.60;99.90
23160;DHT22;11748;50.844;4.396;2023-02-28T07:58:24;3.70;99.90
23160;DHT22;11748;50.844;4.396;2023-02-28T08:00:51;3.70;99.90
23160;DHT22;11748;50.844;4.396;2023-02-28T08:03:21;3.80;99.90
23160;DHT22;11748;50.844;4.396;2023-02-28T08:05:47;3.80;99.90
23160;DHT22;11748;50.844;4.396;2023-02-28T08:08:14;3.80;99.90
23160;DHT22;11748;50.844;4.396;2023-02-28T08:10:40;3.80;99.90
23160;DHT22;11748;50.844;4.396;2023-02-28T08:13:06;3.90;99.90
23160;DHT22;11748;50.844;4.396;2023-02-28T08:15:32;3.90;99.90
23160;DHT22;11748;50.844;4.396;2023-02-28T08:17:58;4.00;99.90
23160;DHT22;11748;50.844;4.396;2023-02-28T08:20:25;4.10;99.90
23160;DHT22;11748;50.844;4.396;2023-02-28T08:22:51;4.20;99.90
23160;DHT22;11748;50.844;4.396;2023-02-28T08:25:17;4.20;99.90
23160;DHT22;11748;50.844;4.396;2023-02-28T08:27:43;4.20;99.90
23160;DHT22;11748;50.844;4.396;2023-02-28T08:30:13;4.20;99.90
23160;DHT22;11748;50.844;4.396;2023-02-28T08:32:40;4.40;99.90
23160;DHT22;11748;50.844;4.396;2023-02-28T08:35:06;4.50;99.90
23160;DHT22;11748;50.844;4.396;2023-02-28T08:37:34;4.60;99.90
23160;DHT22;11748;50.844;4.396;2023-02-28T08:40:00;4.50;99.90
23160;DHT22;11748;50.844;4.396;2023-02-28T08:42:26;4.70;99.90
23160;DHT22;11748;50.844;4.396;2023-02-28T08:44:51;4.60;99.90
23160;DHT22;11748;50.844;4.396;2023-02-28T08:47:17;4.60;99.90
23160;DHT22;11748;50.844;4.396;2023-02-28T08:49:43;4.60;99.90
23160;DHT22;11748;50.844;4.396;2023-02-28T08:52:09;4.60;99.90
23160;DHT22;11748;50.844;4.396;2023-02-28T08:54:35;4.50;99.90
23160;DHT22;11748;50.844;4.396;2023-02-28T08:57:01;4.50;99.90
23160;DHT22;11748;50.844;4.396;2023-02-28T08:59:27;4.50;99.90
23160;DHT22;11748;50.844;4.396;2023-02-28T09:01:53;4.60;99.90
23160;DHT22;11748;50.844;4.396;2023-02-28T09:04:19;4.60;99.90
23160;DHT22;11748;50.844;4.396;2023-02-28T09:06:44;4.60;99.90
23160;DHT22;11748;50.844;4.396;2023-02-28T09:09:10;4.70;99.90
23160;DHT22;11748;50.844;4.396;2023-02-28T09:11:36;4.70;99.90
23160;DHT22;11748;50.844;4.396;2023-02-28T09:14:03;4.60;99.90
23160;DHT22;11748;50.844;4.396;2023-02-28T09:16:31;4.60;99.90
23160;DHT22;11748;50.844;4.396;2023-02-28T09:18:57;4.70;99.90
23160;DHT22;11748;50.844;4.396;2023-02-28T09:21:23;4.70;99.90
23160;DHT22;11748;50.844;4.396;2023-02-28T09:23:50;4.80;99.90
23160;DHT22;11748;50.844;4.396;2023-02-28T09:26:18;4.80;99.90
23160;DHT22;11748;50.844;4.396;2023-02-28T09:28:45;4.80;99.90
23160;DHT22;11748;50.844;4.396;2023-02-28T09:31:19;4.90;99.90
23160;DHT22;11748;50.844;4.396;2023-02-28T09:33:48;4.90;99.90
23160;DHT22;11748;50.844;4.396;2023-02-28T09:36:17;4.90;99.90
23160;DHT22;11748;50.844;4.396;2023-02-28T09:38:43;5.00;99.90
23160;DHT22;11748;50.844;4.396;2023-02-28T09:41:16;5.00;99.90
23160;DHT22;11748;50.844;4.396;2023-02-28T09:43:49;5.00;99.90
23160;DHT22;11748;50.844;4.396;2023-02-28T09:46:40;5.00;99.90
23160;DHT22;11748;50.844;4.396;2023-02-28T09:52:01;5.10;99.90
23160;DHT22;11748;50.844;4.396;2023-02-28T09:54:31;5.20;99.90
23160;DHT22;11748;50.844;4.396;2023-02-28T09:57:26;5.30;99.90
23160;DHT22;11748;50.844;4.396;2023-02-28T10:05:41;5.30;99.90
23160;DHT22;11748;50.844;4.396;2023-02-28T10:08:21;5.40;99.90
23160;DHT22;11748;50.844;4.396;2023-02-28T10:11:07;5.50;99.90
23160;DHT22;11748;50.844;4.396;2023-02-28T10:13:53;5.60;99.80
23160;DHT22;11748;50.844;4.396;2023-02-28T10:16:39;5.60;99.60
23160;DHT22;11748;50.844;4.396;2023-02-28T10:21:49;5.60;99.30
23160;DHT22;11748;50.844;4.396;2023-02-28T10:24:33;5.50;99.30
23160;DHT22;11748;50.844;4.396;2023-02-28T10:29:47;5.50;99.20
23160;DHT22;11748;50.844;4.396;2023-02-28T10:32:18;5.40;98.50
23160;DHT22;11748;50.844;4.396;2023-02-28T10:34:44;5.50;98.00
23160;DHT22;11748;50.844;4.396;2023-02-28T10:37:13;5.50;97.70
23160;DHT22;11748;50.844;4.396;2023-02-28T10:39:41;5.50;97.30
23160;DHT22;11748;50.844;4.396;2023-02-28T10:42:28;5.50;96.80
23160;DHT22;11748;50.844;4.396;2023-02-28T10:45:15;5.60;96.50
23160;DHT22;11748;50.844;4.396;2023-02-28T10:47:59;5.70;96.60
23160;DHT22;11748;50.844;4.396;2023-02-28T10:50:44;5.80;96.40
23160;DHT22;11748;50.844;4.396;2023-02-28T10:56:24;5.90;96.20
23160;DHT22;11748;50.844;4.396;2023-02-28T11:01:34;6.10;95.80
23160;DHT22;11748;50.844;4.396;2023-02-28T11:04:01;6.20;95.10
23160;DHT22;11748;50.844;4.396;2023-02-28T11:06:33;6.30;94.90
23160;DHT22;11748;50.844;4.396;2023-02-28T11:09:18;6.40;94.90
23160;DHT22;11748;50.844;4.396;2023-02-28T11:11:46;6.40;94.70
23160;DHT22;11748;50.844;4.396;2023-02-28T11:14:28;6.30;94.50
23160;DHT22;11748;50.844;4.396;2023-02-28T11:17:03;6.20;94.90
23160;DHT22;11748;50.844;4.396;2023-02-28T11:19:43;6.20;95.10
23160;DHT22;11748;50.844;4.396;2023-02-28T11:22:09;6.30;94.90
23160;DHT22;11748;50.844;4.396;2023-02-28T11:24:41;6.40;94.80
23160;DHT22;11748;50.844;4.396;2023-02-28T11:27:26;6.40;94.20
23160;DHT22;11748;50.844;4.396;2023-02-28T11:29:52;6.50;94.40
23160;DHT22;11748;50.844;4.396;2023-02-28T11:32:22;6.40;94.10
23160;DHT22;11748;50.844;4.396;2023-02-28T11:35:12;6.30;94.20
23160;DHT22;11748;50.844;4.396;2023-02-28T11:37:39;6.40;94.30
23160;DHT22;11748;50.844;4.396;2023-02-28T11:40:35;6.40;94.40
23160;DHT22;11748;50.844;4.396;2023-02-28T11:43:18;6.50;93.90
23160;DHT22;11748;50.844;4.396;2023-02-28T11:54:35;6.80;93.90
23160;DHT22;11748;50.844;4.396;2023-02-28T12:05:15;6.90;93.70
23160;DHT22;11748;50.844;4.396;2023-02-28T12:07:53;6.80;93.40
23160;DHT22;11748;50.844;4.396;2023-02-28T12:10:30;6.70;93.90
23160;DHT22;11748;50.844;4.396;2023-02-28T12:13:21;6.80;93.60
23160;DHT22;11748;50.844;4.396;2023-02-28T12:19:24;6.90;92.70
23160;DHT22;11748;50.844;4.396;2023-02-28T12:21:45;6.80;92.30
23160;DHT22;11748;50.844;4.396;2023-02-28T12:26:53;6.80;92.20
23160;DHT22;11748;50.844;4.396;2023-02-28T12:29:25;6.90;91.90
23160;DHT22;11748;50.844;4.396;2023-02-28T12:32:13;7.00;91.80
23160;DHT22;11748;50.844;4.396;2023-02-28T12:34:44;7.00;91.90
23160;DHT22;11748;50.844;4.396;2023-02-28T12:37:19;7.00;91.60
23160;DHT22;11748;50.844;4.396;2023-02-28T12:39:51;7.10;91.50
23160;DHT22;11748;50.844;4.396;2023-02-28T12:42:45;7.10;91.20
23160;DHT22;11748;50.844;4.396;2023-02-28T12:45:23;7.10;91.50
23160;DHT22;11748;50.844;4.396;2023-02-28T12:47:59;7.20;91.20
23160;DHT22;11748;50.844;4.396;2023-02-28T12:50:26;7.20;91.10
23160;DHT22;11748;50.844;4.396;2023-02-28T12:55:50;7.10;91.00
23160;DHT22;11748;50.844;4.396;2023-02-28T13:09:29;7.20;90.30
23160;DHT22;11748;50.844;4.396;2023-02-28T13:11:56;7.20;90.30
23160;DHT22;11748;50.844;4.396;2023-02-28T13:14:37;7.00;90.50
23160;DHT22;11748;50.844;4.396;2023-02-28T13:19:37;7.20;90.50
23160;DHT22;11748;50.844;4.396;2023-02-28T13:22:04;7.40;90.30
23160;DHT22;11748;50.844;4.396;2023-02-28T13:24:39;7.40;90.30
23160;DHT22;11748;50.844;4.396;2023-02-28T13:29:44;7.40;90.10
23160;DHT22;11748;50.844;4.396;2023-02-28T13:34:37;7.50;90.00
23160;DHT22;11748;50.844;4.396;2023-02-28T13:39:55;7.60;89.20
23160;DHT22;11748;50.844;4.396;2023-02-28T13:42:23;7.60;88.50
23160;DHT22;11748;50.844;4.396;2023-02-28T13:47:42;7.50;88.00
23160;DHT22;11748;50.844;4.396;2023-02-28T13:50:30;7.50;87.70
23160;DHT22;11748;50.844;4.396;2023-02-28T13:53:33;7.40;87.40
23160;DHT22;11748;50.844;4.396;2023-02-28T13:57:04;7.40;87.50
23160;DHT22;11748;50.844;4.396;2023-02-28T13:59:53;7.40;87.80
23160;DHT22;11748;50.844;4.396;2023-02-28T14:05:15;7.40;87.70
23160;DHT22;11748;50.844;4.396;2023-02-28T14:07:50;7.50;87.60
23160;DHT22;11748;50.844;4.396;2023-02-28T14:10:31;7.50;87.10
23160;DHT22;11748;50.844;4.396;2023-02-28T14:13:03;7.50;87.30
23160;DHT22;11748;50.844;4.396;2023-02-28T14:18:13;7.30;87.60
23160;DHT22;11748;50.844;4.396;2023-02-28T14:20:40;7.30;87.90
23160;DHT22;11748;50.844;4.396;2023-02-28T14:26:42;7.40;88.20
23160;DHT22;11748;50.844;4.396;2023-02-28T14:36:46;7.40;88.10
23160;DHT22;11748;50.844;4.396;2023-02-28T14:41:41;7.40;88.00
23160;DHT22;11748;50.844;4.396;2023-02-28T14:44:22;7.30;87.60
23160;DHT22;11748;50.844;4.396;2023-02-28T14:46:55;7.20;88.00
23160;DHT22;11748;50.844;4.396;2023-02-28T14:49:30;7.20;88.00
23160;DHT22;11748;50.844;4.396;2023-02-28T14:52:17;7.20;88.30
23160;DHT22;11748;50.844;4.396;2023-02-28T14:54:44;7.30;88.60
23160;DHT22;11748;50.844;4.396;2023-02-28T14:57:26;7.30;88.80
23160;DHT22;11748;50.844;4.396;2023-02-28T15:02:26;7.30;89.00
23160;DHT22;11748;50.844;4.396;2023-02-28T15:05:02;7.30;88.60
23160;DHT22;11748;50.844;4.396;2023-02-28T15:07:36;7.30;88.70
23160;DHT22;11748;50.844;4.396;2023-02-28T15:10:21;7.30;89.00
23160;DHT22;11748;50.844;4.396;2023-02-28T15:12:55;7.40;88.90
23160;DHT22;11748;50.844;4.396;2023-02-28T15:17:59;7.30;88.80
23160;DHT22;11748;50.844;4.396;2023-02-28T15:20:28;7.20;89.10
23160;DHT22;11748;50.844;4.396;2023-02-28T15:22:56;7.10;89.80
23160;DHT22;11748;50.844;4.396;2023-02-28T15:25:22;7.10;90.00
23160;DHT22;11748;50.844;4.396;2023-02-28T15:27:51;7.10;90.00
23160;DHT22;11748;50.844;4.396;2023-02-28T15:30:29;7.10;90.00
23160;DHT22;11748;50.844;4.396;2023-02-28T15:33:19;7.10;90.10
23160;DHT22;11748;50.844;4.396;2023-02-28T15:35:46;7.00;90.40
23160;DHT22;11748;50.844;4.396;2023-02-28T15:38:23;7.00;90.50
23160;DHT22;11748;50.844;4.396;2023-02-28T15:40:54;7.10;90.50
23160;DHT22;11748;50.844;4.396;2023-02-28T15:46:06;7.10;90.30
23160;DHT22;11748;50.844;4.396;2023-02-28T15:54:12;6.90;90.50
23160;DHT22;11748;50.844;4.396;2023-02-28T15:56:45;6.90;90.50
23160;DHT22;11748;50.844;4.396;2023-02-28T15:59:21;6.90;90.70
23160;DHT22;11748;50.844;4.396;2023-02-28T16:01:47;6.80;90.60
23160;DHT22;11748;50.844;4.396;2023-02-28T16:04:27;6.80;90.70
23160;DHT22;11748;50.844;4.396;2023-02-28T16:09:25;6.80;90.70
23160;DHT22;11748;50.844;4.396;2023-02-28T16:11:55;6.70;90.70
23160;DHT22;11748;50.844;4.396;2023-02-28T16:14:23;6.70;90.80
23160;DHT22;11748;50.844;4.396;2023-02-28T16:16:53;6.60;90.80
23160;DHT22;11748;50.844;4.396;2023-02-28T16:19:20;6.70;90.90
23160;DHT22;11748;50.844;4.396;2023-02-28T16:21:46;6.60;90.90
23160;DHT22;11748;50.844;4.396;2023-02-28T16:24:12;6.60;91.00
23160;DHT22;11748;50.844;4.396;2023-02-28T16:26:40;6.60;91.10
23160;DHT22;11748;50.844;4.396;2023-02-28T16:29:08;6.60;91.20
23160;DHT22;11748;50.844;4.396;2023-02-28T16:31:37;6.60;91.30
23160;DHT22;11748;50.844;4.396;2023-02-28T16:34:03;6.60;91.50
23160;DHT22;11748;50.844;4.396;2023-02-28T16:36:30;6.60;91.40
23160;DHT22;11748;50.844;4.396;2023-02-28T16:38:56;6.40;91.70
23160;DHT22;11748;50.844;4.396;2023-02-28T16:41:25;6.40;91.70
23160;DHT22;11748;50.844;4.396;2023-02-28T16:43:53;6.40;91.80
23160;DHT22;11748;50.844;4.396;2023-02-28T16:46:20;6.30;92.00
23160;DHT22;11748;50.844;4.396;2023-02-28T16:48:46;6.40;91.90
23160;DHT22;11748;50.844;4.396;2023-02-28T16:51:17;6.40;91.80
23160;DHT22;11748;50.844;4.396;2023-02-28T16:53:44;6.30;92.00
23160;DHT22;11748;50.844;4.396;2023-02-28T16:56:16;6.40;92.00
23160;DHT22;11748;50.844;4.396;2023-02-28T16:58:42;6.30;92.10
23160;DHT22;11748;50.844;4.396;2023-02-28T17:01:08;6.30;92.10
23160;DHT22;11748;50.844;4.396;2023-02-28T17:03:33;6.20;92.30
23160;DHT22;11748;50.844;4.396;2023-02-28T17:06:02;6.20;92.40
23160;DHT22;11748;50.844;4.396;2023-02-28T17:08:28;6.20;92.40
23160;DHT22;11748;50.844;4.396;2023-02-28T17:10:55;6.20;92.40
23160;DHT22;11748;50.844;4.396;2023-02-28T17:13:20;6.30;92.30
23160;DHT22;11748;50.844;4.396;2023-02-28T17:15:46;6.30;92.30
23160;DHT22;11748;50.844;4.396;2023-02-28T17:18:18;6.20;92.40
23160;DHT22;11748;50.844;4.396;2023-02-28T17:20:45;6.20;92.40
23160;DHT22;11748;50.844;4.396;2023-02-28T17:23:12;6.10;92.50
23160;DHT22;11748;50.844;4.396;2023-02-28T17:25:37;6.00;92.70
23160;DHT22;11748;50.844;4.396;2023-02-28T17:28:04;6.00;92.80
23160;DHT22;11748;50.844;4.396;2023-02-28T17:30:33;6.00;92.90
23160;DHT22;11748;50.844;4.396;2023-02-28T17:32:59;5.90;92.90
23160;DHT22;11748;50.844;4.396;2023-02-28T17:35:26;5.90;92.90
23160;DHT22;11748;50.844;4.396;2023-02-28T17:37:52;5.90;93.00
23160;DHT22;11748;50.844;4.396;2023-02-28T17:40:21;5.90;93.00
23160;DHT22;11748;50.844;4.396;2023-02-28T17:42:48;6.00;93.00
23160;DHT22;11748;50.844;4.396;2023-02-28T17:45:14;5.90;92.90
23160;DHT22;11748;50.844;4.396;2023-02-28T17:47:42;5.90;92.90
23160;DHT22;11748;50.844;4.396;2023-02-28T17:50:17;5.90;93.10
23160;DHT22;11748;50.844;4.396;2023-02-28T17:52:44;5.90;93.10
23160;DHT22;11748;50.844;4.396;2023-02-28T17:55:11;5.80;93.20
23160;DHT22;11748;50.844;4.396;2023-02-28T17:57:37;5.80;93.20
23160;DHT22;11748;50.844;4.396;2023-02-28T18:00:03;5.70;93.50
23160;DHT22;11748;50.844;4.396;2023-02-28T18:02:32;5.70;93.50
23160;DHT22;11748;50.844;4.396;2023-02-28T18:04:58;5.70;93.50
23160;DHT22;11748;50.844;4.396;2023-02-28T18:07:24;5.70;93.60
23160;DHT22;11748;50.844;4.396;2023-02-28T18:09:50;5.70;93.50
23160;DHT22;11748;50.844;4.396;2023-02-28T18:12:16;5.70;93.70
23160;DHT22;11748;50.844;4.396;2023-02-28T18:14:41;5.70;93.70